Chico, CA (95973)

4:02 PM PDT on September 02, 2015 (GMT -0700)
9th & Ivy Downtown Chico | | Change Station
CLOSE
Current Station
Personal Weather Station
Location: Chico, CA
Elevation: 190 ft
Nearby Weather Stations

Elev 190 ft 39.72 °N, 121.84 °W | Updated 4 seconds ago

Partly Cloudy
Partly Cloudy
85.8 °F
Feels Like 83 °F
N
6.7
Wind Variable Wind from SW
Gusts 9.8 mph

Today
High -- | Low -- °F
--% Chance of Precip.
Yesterday
High -- | Low -- °F
Precip. -- in
6:36 AM 7:37 PM
Waning Gibbous, 76% visible
Pressure 29.81 in
Visibility 25.0 miles
Clouds Scattered Clouds 25000 ft
Heat Index 83 °F
Dew Point 49 °F
Humidity 28%
Rainfall 0.00 in
Snow Depth Not available.
UV 4.0 out of 12
Pollen 8.20 out of 12
Air Quality Not available.
Flu Activity Not available.
METAR KCIC 022150Z 15015KT 25SM SCT250 29/10 A2981
Pressure 29.81 in
Visibility 25.0 miles
Clouds Scattered Clouds 25000 ft
Heat Index 83 °F
Dew Point 49 °F
Humidity 28%
Rainfall 0.00 in
Snow Depth Not available.
UV 4.0 out of 12
Pollen 8.20 out of 12
Air Quality Not available.
Flu Activity Not available.
METAR KCIC 022150Z 15015KT 25SM SCT250 29/10 A2981

10-Day Weather Forecast

×

Almanac

Astronomy

Sep. 02, 2015 Rise Set
Actual Time
Civil Twilight
Nautical Twilight
Astronomical Twilight
Moon
Length of Visible Light
Length of Day
Tomorrow will be .
, % of the Moon is Illuminated

Today's Extremes

State Highs State Lows

Community

WunderPhotos

Upload Photos

1,851,821 photos uploaded!

WunderBlogs® & News

Nearby

Air Quality

  Air Quality AQ Index Pollutant
Not available.

Snow Depth

Station Depth Elevation

Earthquake Activity

City Distance Mag. Time & Date
Minimum magnitude displayed is 2.5.

Coastal Water Temperatures

Place Temperature

Stations

Nearby Weather Stations

Station Location Temp. Windchill Dew Point Humidity Wind Precip. Elev Updated Type